createdAt,value
2022-11-25T05:30:37.178Z,997.52
2022-11-25T05:31:37.003Z,997.51
2022-11-25T05:32:36.998Z,997.57
2022-11-25T05:33:37.004Z,997.55
2022-11-25T05:34:37.362Z,997.58
2022-11-25T05:35:37.051Z,997.57
2022-11-25T05:36:36.970Z,997.52
2022-11-25T05:37:36.931Z,997.56
2022-11-25T05:38:36.957Z,997.55
2022-11-25T05:39:36.959Z,997.53
2022-11-25T05:40:36.926Z,997.53
2022-11-25T05:41:36.962Z,997.56
2022-11-25T05:42:36.912Z,997.59
2022-11-25T05:43:36.901Z,997.56
2022-11-25T05:44:37.183Z,997.58
2022-11-25T05:45:36.901Z,997.60
2022-11-25T05:46:36.909Z,997.56
2022-11-25T05:47:36.831Z,997.56
2022-11-25T05:48:36.830Z,997.55
2022-11-25T05:49:36.815Z,997.54
2022-11-25T05:50:36.901Z,997.55
2022-11-25T05:51:36.841Z,997.58
2022-11-25T05:52:36.802Z,997.56
2022-11-25T05:53:36.827Z,997.57
2022-11-25T05:54:36.941Z,997.59
2022-11-25T05:55:36.754Z,997.64
2022-11-25T05:56:36.758Z,997.69
2022-11-25T05:57:36.731Z,997.70
2022-11-25T05:58:36.727Z,997.67
2022-11-25T05:59:36.698Z,997.71
2022-11-25T06:00:36.706Z,997.72
2022-11-25T06:01:36.696Z,997.77
2022-11-25T06:02:36.834Z,997.72
2022-11-25T06:03:36.750Z,997.75
2022-11-25T06:04:36.909Z,997.76
2022-11-25T06:05:36.645Z,997.81
2022-11-25T06:06:36.629Z,997.80
2022-11-25T06:07:36.714Z,997.83
2022-11-25T06:08:36.609Z,997.85
2022-11-25T06:09:36.599Z,997.86
2022-11-25T06:10:36.602Z,997.89
2022-11-25T06:11:36.584Z,997.89
2022-11-25T06:12:36.641Z,997.95
2022-11-25T06:13:36.553Z,998.02
2022-11-25T06:14:36.807Z,997.94
2022-11-25T06:15:36.568Z,997.94
2022-11-25T06:16:36.532Z,997.97
2022-11-25T06:17:36.562Z,998.00
2022-11-25T06:18:36.516Z,997.99
2022-11-25T06:19:36.562Z,997.99
2022-11-25T06:20:36.508Z,997.99
2022-11-25T06:21:36.492Z,997.96
2022-11-25T06:22:36.471Z,997.99
2022-11-25T06:23:36.467Z,997.99
2022-11-25T06:24:36.740Z,997.96
2022-11-25T06:25:36.429Z,997.97
2022-11-25T06:26:36.451Z,997.98
2022-11-25T06:28:04.417Z,998.07
2022-11-25T06:28:37.390Z,998.01
2022-11-25T06:29:36.424Z,998.01
2022-11-25T06:30:36.489Z,998.02
2022-11-25T06:31:36.434Z,998.05
2022-11-25T06:32:37.570Z,998.03
2022-11-25T06:33:36.360Z,998.02
2022-11-25T06:34:36.536Z,998.06
2022-11-25T06:35:36.318Z,998.09
2022-11-25T06:36:36.348Z,998.06
2022-11-25T06:37:36.320Z,998.06
2022-11-25T06:38:36.285Z,998.08
2022-11-25T06:39:36.282Z,998.12
2022-11-25T06:40:36.275Z,998.14
2022-11-25T06:41:36.276Z,998.12
2022-11-25T06:42:36.248Z,998.15
2022-11-25T06:43:36.236Z,998.17
2022-11-25T06:44:37.396Z,998.13
2022-11-25T06:45:36.207Z,998.18
2022-11-25T06:46:36.231Z,998.13
2022-11-25T06:47:36.227Z,998.16
2022-11-25T06:48:36.213Z,998.15
2022-11-25T06:49:36.172Z,998.12
2022-11-25T06:50:36.175Z,998.18
2022-11-25T06:51:36.209Z,998.17
2022-11-25T06:52:36.144Z,998.18
2022-11-25T06:53:36.160Z,998.19
2022-11-25T06:54:36.327Z,998.19
2022-11-25T06:55:36.121Z,998.18
2022-11-25T06:56:36.118Z,998.23
2022-11-25T06:57:36.092Z,998.19
2022-11-25T06:58:36.640Z,998.23
2022-11-25T06:59:36.110Z,998.21
2022-11-25T07:00:36.095Z,998.22
2022-11-25T07:01:36.083Z,998.23
2022-11-25T07:02:41.716Z,998.21
2022-11-25T07:03:37.023Z,998.21
2022-11-25T07:04:36.341Z,998.24
2022-11-25T07:05:35.999Z,998.28
2022-11-25T07:06:36.008Z,998.24
2022-11-25T07:07:36.049Z,998.23
2022-11-25T07:08:35.972Z,998.28
2022-11-25T07:09:35.997Z,998.32
2022-11-25T07:10:35.942Z,998.32
2022-11-25T07:11:35.942Z,998.30
2022-11-25T07:12:35.955Z,998.37
2022-11-25T07:13:35.914Z,998.34
2022-11-25T07:14:36.314Z,998.32
2022-11-25T07:15:36.001Z,998.32
2022-11-25T07:16:35.883Z,998.31
2022-11-25T07:17:35.868Z,998.36
2022-11-25T07:18:35.888Z,998.33
2022-11-25T07:19:35.853Z,998.39
2022-11-25T07:20:35.848Z,998.43
2022-11-25T07:21:35.842Z,998.43
2022-11-25T07:22:35.834Z,998.43
2022-11-25T07:23:35.805Z,998.46
2022-11-25T07:24:36.142Z,998.46
2022-11-25T07:25:35.789Z,998.45
2022-11-25T07:26:35.789Z,998.44
2022-11-25T07:27:35.775Z,998.44
2022-11-25T07:28:35.757Z,998.46
2022-11-25T07:29:57.865Z,998.42
2022-11-25T07:31:37.014Z,998.43
2022-11-25T07:32:35.733Z,998.46
2022-11-25T07:33:35.719Z,998.46
2022-11-25T07:34:35.690Z,998.47
2022-11-25T07:35:35.669Z,998.50
2022-11-25T07:36:35.710Z,998.50
2022-11-25T07:37:35.653Z,998.53
2022-11-25T07:38:35.683Z,998.59
2022-11-25T07:39:35.958Z,998.59
2022-11-25T07:40:35.681Z,998.64
2022-11-25T07:41:35.609Z,998.64
2022-11-25T07:42:35.607Z,998.70
2022-11-25T07:43:35.585Z,998.65
2022-11-25T07:44:35.620Z,998.71
2022-11-25T07:45:35.631Z,998.73
2022-11-25T07:46:35.641Z,998.72
2022-11-25T07:47:35.540Z,998.76
2022-11-25T07:48:35.550Z,998.77
2022-11-25T07:49:35.793Z,998.76
2022-11-25T07:50:35.520Z,998.76
2022-11-25T07:51:35.524Z,998.78
2022-11-25T07:52:35.568Z,998.81
2022-11-25T07:53:35.541Z,998.84
2022-11-25T07:54:35.539Z,998.86
2022-11-25T07:55:35.500Z,998.83
2022-11-25T07:56:35.554Z,998.90
2022-11-25T07:57:35.439Z,998.93
2022-11-25T07:58:35.468Z,998.92
2022-11-25T07:59:35.798Z,998.90
2022-11-25T08:00:35.401Z,998.93
2022-11-25T08:01:35.513Z,998.94
2022-11-25T08:02:35.496Z,998.95
2022-11-25T08:03:35.587Z,998.98
2022-11-25T08:04:35.376Z,998.98
2022-11-25T08:05:35.351Z,998.99
2022-11-25T08:06:35.390Z,998.99
2022-11-25T08:07:36.884Z,998.97
2022-11-25T08:08:35.322Z,998.93
2022-11-25T08:09:35.608Z,998.96
2022-11-25T08:10:35.430Z,998.93
2022-11-25T08:11:35.318Z,998.97
2022-11-25T08:12:35.296Z,999.00
2022-11-25T08:13:35.277Z,999.00
2022-11-25T08:14:35.285Z,999.04
2022-11-25T08:15:35.275Z,999.05
2022-11-25T08:16:35.226Z,999.06
2022-11-25T08:17:35.252Z,999.08
2022-11-25T08:18:35.214Z,999.07
2022-11-25T08:19:35.614Z,999.12
2022-11-25T08:20:35.198Z,999.04
2022-11-25T08:21:35.187Z,999.08
2022-11-25T08:22:35.200Z,999.12
2022-11-25T08:23:35.174Z,999.12
2022-11-25T08:24:35.151Z,999.09
2022-11-25T08:25:35.182Z,999.18
2022-11-25T08:26:35.153Z,999.15
2022-11-25T08:27:35.173Z,999.21
2022-11-25T08:28:35.161Z,999.16
2022-11-25T08:29:35.544Z,999.18
2022-11-25T08:30:35.107Z,999.22
2022-11-25T08:31:35.197Z,999.26
2022-11-25T08:32:35.091Z,999.25
2022-11-25T08:33:35.118Z,999.30
2022-11-25T08:34:35.073Z,999.30
2022-11-25T08:35:35.138Z,999.28
2022-11-25T08:36:35.015Z,999.28
2022-11-25T08:37:35.006Z,999.29
2022-11-25T08:38:35.044Z,999.27
2022-11-25T08:40:35.979Z,999.29
2022-11-25T08:41:34.977Z,999.25
2022-11-25T08:42:34.987Z,999.27
2022-11-25T08:43:35.004Z,999.33
2022-11-25T08:44:34.941Z,999.33
2022-11-25T08:45:35.032Z,999.35
2022-11-25T08:46:35.153Z,999.35
2022-11-25T08:47:34.952Z,999.34
2022-11-25T08:48:34.891Z,999.36
2022-11-25T08:49:40.473Z,999.37
2022-11-25T08:50:35.894Z,999.34
2022-11-25T08:51:34.948Z,999.43
2022-11-25T08:52:34.925Z,999.41
2022-11-25T08:53:34.852Z,999.48
2022-11-25T08:54:34.835Z,999.50
2022-11-25T08:55:34.847Z,999.50
2022-11-25T08:56:34.827Z,999.61
2022-11-25T08:57:34.800Z,999.55
2022-11-25T08:58:34.806Z,999.59
2022-11-25T08:59:35.032Z,999.59
2022-11-25T09:00:34.771Z,999.56
2022-11-25T09:01:34.812Z,999.51
2022-11-25T09:02:34.781Z,999.57
2022-11-25T09:03:34.767Z,999.55
2022-11-25T09:04:34.727Z,999.54
2022-11-25T09:05:34.704Z,999.62
2022-11-25T09:06:34.712Z,999.63
2022-11-25T09:07:34.772Z,999.66
2022-11-25T09:08:34.668Z,999.64
2022-11-25T09:09:35.235Z,999.70
2022-11-25T09:10:34.658Z,999.71
2022-11-25T09:11:34.684Z,999.71
2022-11-25T09:12:34.659Z,999.70
2022-11-25T09:13:34.680Z,999.70
2022-11-25T09:14:34.662Z,999.77
2022-11-25T09:15:35.631Z,999.76
2022-11-25T09:16:34.650Z,999.77
2022-11-25T09:17:34.580Z,999.75
2022-11-25T09:18:34.599Z,999.74
2022-11-25T09:19:34.992Z,999.76
2022-11-25T09:20:34.540Z,999.71
2022-11-25T09:21:34.559Z,999.70
2022-11-25T09:22:34.518Z,999.69
2022-11-25T09:23:34.507Z,999.70
2022-11-25T09:24:34.504Z,999.73
2022-11-25T09:25:34.487Z,999.74
2022-11-25T09:26:34.468Z,999.78
2022-11-25T09:27:34.484Z,999.80
2022-11-25T09:28:34.455Z,999.78
2022-11-25T09:29:34.887Z,999.81
2022-11-25T09:30:34.467Z,999.86
2022-11-25T09:31:34.510Z,999.92
2022-11-25T09:32:34.414Z,999.94
2022-11-25T09:33:34.407Z,999.96
2022-11-25T09:34:34.665Z,999.96
2022-11-25T09:35:34.391Z,1000.01
2022-11-25T09:36:34.385Z,1000.03
2022-11-25T09:37:34.353Z,1000.06
2022-11-25T09:38:37.682Z,1000.07
2022-11-25T09:39:35.875Z,1000.08
2022-11-25T09:40:34.318Z,1000.11
2022-11-25T09:41:34.343Z,1000.11
2022-11-25T09:42:34.305Z,1000.10
2022-11-25T09:43:34.289Z,1000.13
2022-11-25T09:44:34.286Z,1000.10
2022-11-25T09:45:34.269Z,1000.15
2022-11-25T09:46:34.291Z,1000.14
2022-11-25T09:47:34.297Z,1000.16
2022-11-25T09:48:34.249Z,1000.15
2022-11-25T09:49:34.354Z,1000.15
2022-11-25T09:50:34.218Z,1000.18
2022-11-25T09:51:34.205Z,1000.17
2022-11-25T09:52:34.226Z,1000.18
2022-11-25T09:53:34.221Z,1000.23
2022-11-25T09:54:34.180Z,1000.25
2022-11-25T09:55:34.184Z,1000.22
2022-11-25T09:56:34.147Z,1000.19
2022-11-25T09:57:34.141Z,1000.16
2022-11-25T09:58:34.151Z,1000.20
2022-11-25T09:59:34.411Z,1000.20
2022-11-25T10:00:34.109Z,1000.21
2022-11-25T10:01:34.113Z,1000.21
2022-11-25T10:02:34.201Z,1000.26
2022-11-25T10:03:34.207Z,1000.21
2022-11-25T10:04:34.086Z,1000.23
2022-11-25T10:05:34.063Z,1000.26
2022-11-25T10:06:34.119Z,1000.31
2022-11-25T10:07:34.029Z,1000.30
2022-11-25T10:08:34.028Z,1000.32
2022-11-25T10:09:34.283Z,1000.33
2022-11-25T10:10:34.031Z,1000.32
2022-11-25T10:11:34.011Z,1000.36
2022-11-25T10:12:33.979Z,1000.33
2022-11-25T10:13:34.060Z,1000.30
2022-11-25T10:14:33.964Z,1000.33
2022-11-25T10:15:33.958Z,1000.35
2022-11-25T10:16:33.931Z,1000.30
2022-11-25T10:17:33.949Z,1000.28
2022-11-25T10:18:33.955Z,1000.32
2022-11-25T10:19:34.271Z,1000.37
2022-11-25T10:20:33.896Z,1000.33
2022-11-25T10:21:33.883Z,1000.35
2022-11-25T10:22:33.871Z,1000.37
2022-11-25T10:23:33.863Z,1000.37
2022-11-25T10:24:38.403Z,1000.35
2022-11-25T10:25:34.838Z,1000.36
2022-11-25T10:26:34.515Z,1000.36
2022-11-25T10:27:33.820Z,1000.33
2022-11-25T10:28:33.802Z,1000.38
2022-11-25T10:29:33.811Z,1000.38
2022-11-25T10:30:33.801Z,1000.39
2022-11-25T10:31:33.835Z,1000.38
2022-11-25T10:32:33.762Z,1000.44
2022-11-25T10:33:33.751Z,1000.46
2022-11-25T10:34:34.003Z,1000.41
2022-11-25T10:35:33.745Z,1000.44
2022-11-25T10:36:33.803Z,1000.40
2022-11-25T10:37:33.707Z,1000.37
2022-11-25T10:38:33.694Z,1000.43
2022-11-25T10:39:33.688Z,1000.46
2022-11-25T10:40:33.678Z,1000.48
2022-11-25T10:41:33.685Z,1000.45
2022-11-25T10:42:33.677Z,1000.44
2022-11-25T10:43:33.711Z,1000.49
2022-11-25T10:44:33.784Z,1000.48
2022-11-25T10:45:33.629Z,1000.49
2022-11-25T10:46:57.121Z,1000.50
2022-11-25T10:47:34.642Z,1000.51
2022-11-25T10:48:33.589Z,1000.52
2022-11-25T10:49:33.600Z,1000.55
2022-11-25T10:50:33.619Z,1000.56
2022-11-25T10:51:33.562Z,1000.56
2022-11-25T10:52:33.572Z,1000.56
2022-11-25T10:53:34.059Z,1000.59
2022-11-25T10:54:33.590Z,1000.60
2022-11-25T10:55:33.573Z,1000.59
2022-11-25T10:56:33.506Z,1000.61
2022-11-25T10:57:33.487Z,1000.66
2022-11-25T10:58:33.514Z,1000.65
2022-11-25T10:59:33.492Z,1000.71
2022-11-25T11:00:33.477Z,1000.68
2022-11-25T11:01:33.540Z,1000.73
2022-11-25T11:02:33.464Z,1000.72
2022-11-25T11:03:33.448Z,1000.69
2022-11-25T11:04:33.767Z,1000.69
2022-11-25T11:05:33.423Z,1000.74
2022-11-25T11:06:33.442Z,1000.74
2022-11-25T11:07:33.517Z,1000.77
2022-11-25T11:08:33.395Z,1000.79
2022-11-25T11:09:33.360Z,1000.78
2022-11-25T11:10:33.392Z,1000.81
2022-11-25T11:11:33.336Z,1000.79
2022-11-25T11:12:33.337Z,1000.78
2022-11-25T11:13:33.433Z,1000.80
2022-11-25T11:14:33.497Z,1000.83
2022-11-25T11:15:33.353Z,1000.88
2022-11-25T11:16:33.395Z,1000.83
2022-11-25T11:17:38.260Z,1000.85
2022-11-25T11:18:34.260Z,1000.89
2022-11-25T11:19:34.067Z,1000.92
2022-11-25T11:20:33.248Z,1000.89
2022-11-25T11:21:33.227Z,1000.92
2022-11-25T11:22:33.233Z,1000.95
2022-11-25T11:23:33.232Z,1000.90
2022-11-25T11:24:33.198Z,1000.92
2022-11-25T11:25:33.185Z,1000.91
2022-11-25T11:26:33.169Z,1000.94
2022-11-25T11:27:33.162Z,1000.98
2022-11-25T11:28:33.162Z,1000.98
2022-11-25T11:29:33.175Z,1001.02
2022-11-25T11:30:33.161Z,1000.96
2022-11-25T11:31:33.171Z,1000.98
2022-11-25T11:32:33.140Z,1000.98
2022-11-25T11:33:33.150Z,1000.99
2022-11-25T11:34:33.091Z,1001.02
2022-11-25T11:35:36.467Z,1001.06
2022-11-25T11:36:34.071Z,1001.08
2022-11-25T11:37:33.078Z,1001.08
2022-11-25T11:38:33.103Z,1001.11
2022-11-25T11:39:33.038Z,1001.13
2022-11-25T11:40:33.021Z,1001.15
2022-11-25T11:41:33.015Z,1001.16
2022-11-25T11:42:33.040Z,1001.17
2022-11-25T11:43:33.037Z,1001.16
2022-11-25T11:44:32.983Z,1001.16
2022-11-25T11:45:32.970Z,1001.15
2022-11-25T11:46:33.055Z,1001.18
2022-11-25T11:47:32.950Z,1001.14
2022-11-25T11:48:33.022Z,1001.18
2022-11-25T11:49:32.975Z,1001.16
2022-11-25T11:50:32.970Z,1001.21
2022-11-25T11:51:32.897Z,1001.19
2022-11-25T11:52:32.901Z,1001.14
2022-11-25T11:53:32.894Z,1001.19
2022-11-25T11:54:32.884Z,1001.18
2022-11-25T11:55:32.860Z,1001.16
2022-11-25T11:56:35.615Z,1001.18
2022-11-25T11:57:32.876Z,1001.21
2022-11-25T11:58:32.837Z,1001.20
2022-11-25T11:59:32.847Z,1001.17
2022-11-25T12:00:32.824Z,1001.21
2022-11-25T12:01:32.897Z,1001.18
2022-11-25T12:02:32.911Z,1001.23
2022-11-25T12:03:32.886Z,1001.23
2022-11-25T12:04:32.760Z,1001.23
2022-11-25T12:05:32.776Z,1001.29
2022-11-25T12:06:32.734Z,1001.25
2022-11-25T12:07:32.885Z,1001.21
2022-11-25T12:08:32.722Z,1001.19
2022-11-25T12:09:32.728Z,1001.29
2022-11-25T12:10:32.718Z,1001.26
2022-11-25T12:11:32.706Z,1001.29
2022-11-25T12:12:32.680Z,1001.33
2022-11-25T12:13:32.709Z,1001.29
2022-11-25T12:14:32.657Z,1001.29
2022-11-25T12:15:32.660Z,1001.29
2022-11-25T12:16:32.705Z,1001.32
2022-11-25T12:17:32.677Z,1001.34
2022-11-25T12:18:32.614Z,1001.34
2022-11-25T12:19:32.618Z,1001.37
2022-11-25T12:20:32.592Z,1001.37
2022-11-25T12:21:35.291Z,1001.40
2022-11-25T12:22:32.567Z,1001.41
2022-11-25T12:23:32.627Z,1001.44
2022-11-25T12:24:32.609Z,1001.51
2022-11-25T12:25:32.539Z,1001.61
2022-11-25T12:26:32.593Z,1001.52
2022-11-25T12:27:32.618Z,1001.50
2022-11-25T12:28:32.510Z,1001.52
2022-11-25T12:29:32.542Z,1001.50
2022-11-25T12:30:32.512Z,1001.49
2022-11-25T12:31:32.499Z,1001.61
2022-11-25T12:32:32.460Z,1001.70
2022-11-25T12:33:32.457Z,1001.69
2022-11-25T12:34:32.476Z,1001.72
2022-11-25T12:35:32.431Z,1001.67
2022-11-25T12:36:32.420Z,1001.67
2022-11-25T12:37:32.487Z,1001.70
2022-11-25T12:38:32.412Z,1001.69
2022-11-25T12:39:32.413Z,1001.67
2022-11-25T12:40:32.407Z,1001.66
2022-11-25T12:41:32.364Z,1001.70
2022-11-25T12:42:32.393Z,1001.71
2022-11-25T12:43:32.355Z,1001.73
2022-11-25T12:44:32.370Z,1001.71
2022-11-25T12:45:32.375Z,1001.75
2022-11-25T12:46:32.319Z,1001.77
2022-11-25T12:47:35.071Z,1001.81
2022-11-25T12:48:33.500Z,1001.84
2022-11-25T12:49:32.297Z,1001.83
2022-11-25T12:50:32.299Z,1001.84
2022-11-25T12:51:32.308Z,1001.86
2022-11-25T12:52:32.250Z,1001.86
2022-11-25T12:53:32.231Z,1001.87
2022-11-25T12:54:32.226Z,1001.87
2022-11-25T12:55:32.210Z,1001.86
2022-11-25T12:56:32.997Z,1001.86
2022-11-25T12:57:33.494Z,1001.90
2022-11-25T12:58:33.102Z,1001.89
2022-11-25T12:59:32.165Z,1001.92
2022-11-25T13:00:47.574Z,1001.90
2022-11-25T13:01:33.236Z,1001.93
2022-11-25T13:02:33.087Z,1001.92
2022-11-25T13:03:32.187Z,1001.90
2022-11-25T13:04:32.127Z,1001.91
2022-11-25T13:05:40.601Z,1001.94
2022-11-25T13:06:34.007Z,1001.98
2022-11-25T13:07:32.208Z,1001.95
2022-11-25T13:08:32.094Z,1002.02
2022-11-25T13:09:32.089Z,1001.99
2022-11-25T13:10:32.058Z,1002.03
2022-11-25T13:11:32.428Z,1002.04
2022-11-25T13:12:32.445Z,1002.07
2022-11-25T13:13:32.323Z,1002.08
2022-11-25T13:14:32.333Z,1002.06
2022-11-25T13:15:32.895Z,1002.12
2022-11-25T13:16:32.626Z,1002.07
2022-11-25T13:17:32.166Z,1002.11
2022-11-25T13:18:31.968Z,1002.10
2022-11-25T13:19:31.975Z,1002.17
2022-11-25T13:20:31.941Z,1002.13
2022-11-25T13:21:31.931Z,1002.12
2022-11-25T13:22:31.928Z,1002.14
2022-11-25T13:23:31.915Z,1002.11
2022-11-25T13:24:31.928Z,1002.20
2022-11-25T13:25:31.931Z,1002.18
2022-11-25T13:26:31.953Z,1002.16
2022-11-25T13:27:31.914Z,1002.13
2022-11-25T13:28:31.889Z,1002.12
2022-11-25T13:29:31.836Z,1002.18
2022-11-25T13:30:31.891Z,1002.19
2022-11-25T13:31:31.868Z,1002.19
2022-11-25T13:32:31.834Z,1002.24
2022-11-25T13:33:31.800Z,1002.20
2022-11-25T13:34:31.794Z,1002.23
2022-11-25T13:35:31.781Z,1002.20
2022-11-25T13:36:31.773Z,1002.20
2022-11-25T13:37:36.178Z,1002.20
2022-11-25T13:38:31.755Z,1002.26
2022-11-25T13:39:31.736Z,1002.21
2022-11-25T13:40:31.760Z,1002.23
2022-11-25T13:41:31.785Z,1002.21
2022-11-25T13:42:31.711Z,1002.26
2022-11-25T13:43:31.704Z,1002.26
2022-11-25T13:44:31.693Z,1002.28
2022-11-25T13:45:31.790Z,1002.29
2022-11-25T13:46:31.705Z,1002.38
2022-11-25T13:47:35.053Z,1002.33
2022-11-25T13:48:33.503Z,1002.36
2022-11-25T13:49:31.631Z,1002.41
2022-11-25T13:51:10.595Z,1002.39
2022-11-25T13:51:35.620Z,1002.39
2022-11-25T13:52:31.601Z,1002.41
2022-11-25T13:53:31.689Z,1002.40
2022-11-25T13:54:32.479Z,1002.35
2022-11-25T13:55:31.578Z,1002.38
2022-11-25T13:56:31.572Z,1002.44
2022-11-25T13:57:32.557Z,1002.44
2022-11-25T13:58:31.570Z,1002.42
2022-11-25T13:59:31.620Z,1002.44
2022-11-25T14:00:31.578Z,1002.51
2022-11-25T14:01:31.692Z,1002.46
2022-11-25T14:02:31.732Z,1002.49
2022-11-25T14:03:31.569Z,1002.53
2022-11-25T14:04:31.470Z,1002.54
2022-11-25T14:05:31.504Z,1002.54
2022-11-25T14:06:31.461Z,1002.62
2022-11-25T14:07:31.663Z,1002.61
2022-11-25T14:08:31.628Z,1002.62
2022-11-25T14:09:31.434Z,1002.66
2022-11-25T14:10:31.549Z,1002.65
2022-11-25T14:11:31.503Z,1002.67
2022-11-25T14:12:31.484Z,1002.71
2022-11-25T14:13:31.396Z,1002.68
2022-11-25T14:14:31.606Z,1002.75
2022-11-25T14:15:31.568Z,1002.74
2022-11-25T14:16:31.408Z,1002.79
2022-11-25T14:17:31.406Z,1002.78
2022-11-25T14:19:11.936Z,1002.74
2022-11-25T14:20:02.138Z,1002.81
2022-11-25T14:20:32.982Z,1002.75
2022-11-25T14:21:31.302Z,1002.79
2022-11-25T14:22:31.284Z,1002.82
2022-11-25T14:23:32.064Z,1002.83
2022-11-25T14:24:31.247Z,1002.79
2022-11-25T14:25:31.483Z,1002.80
2022-11-25T14:26:49.147Z,1002.83
2022-11-25T14:27:32.251Z,1002.85
2022-11-25T14:28:32.021Z,1002.80
2022-11-25T14:29:31.987Z,1002.79
2022-11-25T14:30:32.474Z,1002.80
2022-11-25T14:31:32.018Z,1002.82
2022-11-25T14:32:31.255Z,1002.85
2022-11-25T14:33:31.225Z,1002.84
2022-11-25T14:34:31.165Z,1002.85
2022-11-25T14:35:31.160Z,1002.82
2022-11-25T14:36:31.220Z,1002.81
2022-11-25T14:37:31.170Z,1002.81
2022-11-25T14:38:31.124Z,1002.86
2022-11-25T14:39:31.127Z,1002.87
2022-11-25T14:40:31.087Z,1002.88
2022-11-25T14:41:31.205Z,1002.90
2022-11-25T14:42:31.444Z,1002.87
2022-11-25T14:43:31.386Z,1002.87
2022-11-25T14:44:31.287Z,1002.86
2022-11-25T14:45:31.108Z,1002.91
2022-11-25T14:46:31.042Z,1002.89
2022-11-25T14:47:34.630Z,1002.89
2022-11-25T14:48:32.035Z,1002.87
2022-11-25T14:49:59.713Z,1002.90
2022-11-25T14:50:35.562Z,1002.92
2022-11-25T14:51:31.018Z,1002.92
2022-11-25T14:52:30.945Z,1002.90
2022-11-25T14:53:30.937Z,1002.94
2022-11-25T14:54:31.013Z,1002.94
2022-11-25T14:55:30.920Z,1002.95
2022-11-25T14:56:30.936Z,1002.99
2022-11-25T14:57:30.978Z,1002.95
2022-11-25T14:58:30.898Z,1003.00
2022-11-25T14:59:30.891Z,1002.96
2022-11-25T15:00:30.861Z,1003.01
2022-11-25T15:01:30.900Z,1002.98
2022-11-25T15:02:30.976Z,1003.05
2022-11-25T15:03:30.865Z,1003.03
2022-11-25T15:04:30.873Z,1003.06
2022-11-25T15:05:30.829Z,1003.13
2022-11-25T15:06:30.822Z,1003.20
2022-11-25T15:07:31.521Z,1003.19
2022-11-25T15:08:30.797Z,1003.17
2022-11-25T15:09:30.772Z,1003.18
2022-11-25T15:10:30.773Z,1003.21
2022-11-25T15:11:30.744Z,1003.23
2022-11-25T15:12:30.730Z,1003.18
2022-11-25T15:13:30.724Z,1003.21
2022-11-25T15:14:30.748Z,1003.25
2022-11-25T15:15:30.715Z,1003.28
2022-11-25T15:16:30.784Z,1003.29
2022-11-25T15:17:30.688Z,1003.33
2022-11-25T15:18:30.685Z,1003.31
2022-11-25T15:19:33.576Z,1003.32
2022-11-25T15:20:30.666Z,1003.28
2022-11-25T15:21:30.641Z,1003.37
2022-11-25T15:22:30.666Z,1003.31
2022-11-25T15:23:30.619Z,1003.32
2022-11-25T15:24:30.628Z,1003.28
2022-11-25T15:25:30.593Z,1003.31
2022-11-25T15:26:30.635Z,1003.31
2022-11-25T15:27:30.573Z,1003.33
2022-11-25T15:28:30.566Z,1003.33
2022-11-25T15:29:30.584Z,1003.41
2022-11-25T15:30:30.543Z,1003.42
2022-11-25T15:31:30.587Z,1003.50
2022-11-25T15:32:30.554Z,1003.49
2022-11-25T15:33:30.512Z,1003.52
2022-11-25T15:34:30.488Z,1003.53
2022-11-25T15:35:30.490Z,1003.55
2022-11-25T15:36:30.482Z,1003.55
2022-11-25T15:37:30.510Z,1003.60
2022-11-25T15:38:30.470Z,1003.59
2022-11-25T15:39:30.438Z,1003.63
2022-11-25T15:40:30.426Z,1003.65
2022-11-25T15:41:30.479Z,1003.67
2022-11-25T15:42:30.408Z,1003.70
2022-11-25T15:43:30.433Z,1003.67
2022-11-25T15:44:30.383Z,1003.68
2022-11-25T15:45:30.399Z,1003.72
2022-11-25T15:46:30.361Z,1003.74
2022-11-25T15:47:30.383Z,1003.77
2022-11-25T15:48:30.346Z,1003.87
2022-11-25T15:49:30.362Z,1003.82
2022-11-25T15:50:30.322Z,1003.88
2022-11-25T15:51:30.310Z,1003.91
2022-11-25T15:52:30.310Z,1003.96
2022-11-25T15:53:33.306Z,1003.97
2022-11-25T15:54:30.300Z,1003.98
2022-11-25T15:55:30.294Z,1003.98
2022-11-25T15:56:30.274Z,1004.00
2022-11-25T15:57:30.241Z,1004.06
2022-11-25T15:58:30.240Z,1004.06
2022-11-25T15:59:30.239Z,1004.15
2022-11-25T16:00:30.218Z,1004.09
2022-11-25T16:01:30.387Z,1004.13
2022-11-25T16:02:30.230Z,1004.14
2022-11-25T16:03:30.196Z,1004.16
2022-11-25T16:04:30.170Z,1004.16
2022-11-25T16:05:30.183Z,1004.19
2022-11-25T16:06:30.144Z,1004.23
2022-11-25T16:07:30.220Z,1004.27
2022-11-25T16:08:30.136Z,1004.26
2022-11-25T16:09:30.123Z,1004.31
2022-11-25T16:10:30.125Z,1004.29
2022-11-25T16:11:30.097Z,1004.31
2022-11-25T16:12:30.088Z,1004.34
2022-11-25T16:13:30.103Z,1004.34
2022-11-25T16:14:30.066Z,1004.37
2022-11-25T16:15:30.061Z,1004.33
2022-11-25T16:16:30.211Z,1004.44
2022-11-25T16:17:30.040Z,1004.39
2022-11-25T16:18:40.199Z,1004.41
2022-11-25T16:19:35.140Z,1004.43
2022-11-25T16:20:31.006Z,1004.45
2022-11-25T16:21:30.005Z,1004.46
2022-11-25T16:22:29.970Z,1004.49
2022-11-25T16:23:29.968Z,1004.51
2022-11-25T16:24:29.951Z,1004.53
2022-11-25T16:25:30.040Z,1004.61
2022-11-25T16:26:30.051Z,1004.58
2022-11-25T16:27:30.064Z,1004.65
2022-11-25T16:28:29.908Z,1004.63
2022-11-25T16:29:29.914Z,1004.64
2022-11-25T16:30:29.887Z,1004.67
2022-11-25T16:31:29.925Z,1004.74
2022-11-25T16:32:29.882Z,1004.70
2022-11-25T16:33:29.860Z,1004.71
2022-11-25T16:34:29.849Z,1004.72
2022-11-25T16:35:29.838Z,1004.72
2022-11-25T16:36:29.828Z,1004.71
2022-11-25T16:37:29.859Z,1004.74
2022-11-25T16:38:29.804Z,1004.76
2022-11-25T16:39:29.787Z,1004.76
2022-11-25T16:40:29.790Z,1004.79
2022-11-25T16:41:29.767Z,1004.79
2022-11-25T16:42:29.793Z,1004.79
2022-11-25T16:43:29.790Z,1004.81
2022-11-25T16:44:29.753Z,1004.86
2022-11-25T16:45:29.803Z,1004.84
2022-11-25T16:46:29.841Z,1004.88
2022-11-25T16:47:29.733Z,1004.88
2022-11-25T16:48:29.727Z,1004.91
2022-11-25T16:49:29.723Z,1004.89
2022-11-25T16:50:29.677Z,1004.96
2022-11-25T16:51:29.657Z,1005.01
2022-11-25T16:52:29.649Z,1005.00
2022-11-25T16:53:29.664Z,1005.01
2022-11-25T16:54:29.632Z,1005.05
2022-11-25T16:55:29.666Z,1005.02
2022-11-25T16:56:29.609Z,1005.01
2022-11-25T16:57:29.602Z,1005.10
2022-11-25T16:58:29.638Z,1005.15
2022-11-25T16:59:29.596Z,1005.10
2022-11-25T17:00:29.567Z,1005.15
2022-11-25T17:01:29.631Z,1005.10
2022-11-25T17:02:29.664Z,1005.09
2022-11-25T17:03:29.534Z,1005.15
2022-11-25T17:04:29.519Z,1005.18
2022-11-25T17:05:29.554Z,1005.18
2022-11-25T17:06:29.514Z,1005.22
2022-11-25T17:07:33.647Z,1005.20
2022-11-25T17:08:29.590Z,1005.22
2022-11-25T17:09:29.463Z,1005.19
2022-11-25T17:10:29.459Z,1005.25
2022-11-25T17:11:29.501Z,1005.22
2022-11-25T17:12:29.435Z,1005.28
2022-11-25T17:13:29.420Z,1005.24
2022-11-25T17:14:29.691Z,1005.28
2022-11-25T17:15:29.824Z,1005.30
2022-11-25T17:16:29.508Z,1005.30
2022-11-25T17:17:29.506Z,1005.30
2022-11-25T17:18:29.374Z,1005.32
2022-11-25T17:19:29.499Z,1005.31
2022-11-25T17:20:29.377Z,1005.32
2022-11-25T17:21:29.342Z,1005.33
2022-11-25T17:22:32.332Z,1005.35
2022-11-25T17:23:30.363Z,1005.38
2022-11-25T17:24:29.300Z,1005.36
2022-11-25T17:25:35.279Z,1005.37
2022-11-25T17:26:29.288Z,1005.40
2022-11-25T17:27:29.269Z,1005.41
2022-11-25T17:28:29.263Z,1005.37
2022-11-25T17:29:29.282Z,1005.35
2022-11-25T17:30:29.260Z,1005.41
2022-11-25T17:31:29.283Z,1005.44
2022-11-25T17:32:29.255Z,1005.44
2022-11-25T17:33:29.204Z,1005.48
2022-11-25T17:34:29.216Z,1005.47
2022-11-25T17:35:29.218Z,1005.50
2022-11-25T17:36:29.177Z,1005.49
2022-11-25T17:37:29.165Z,1005.55
2022-11-25T17:38:29.163Z,1005.56
2022-11-25T17:39:29.168Z,1005.60
2022-11-25T17:40:29.141Z,1005.59
2022-11-25T17:41:29.138Z,1005.59
2022-11-25T17:42:29.108Z,1005.57
2022-11-25T17:43:34.331Z,1005.63
2022-11-25T17:44:30.104Z,1005.60
2022-11-25T17:45:29.135Z,1005.65